createdAt,value
2022-10-15T00:01:23.468Z,62402.38
2022-10-15T00:03:50.339Z,62402.38
2022-10-15T00:06:19.583Z,62402.38
2022-10-15T00:08:48.529Z,62402.38
2022-10-15T00:11:17.572Z,62402.38
2022-10-15T00:13:44.920Z,62402.38
2022-10-15T00:16:13.726Z,62402.38
2022-10-15T00:18:41.234Z,62402.38
2022-10-15T00:21:08.855Z,62402.38
2022-10-15T00:23:36.778Z,62402.38
2022-10-15T00:26:07.332Z,62402.38
2022-10-15T00:28:34.555Z,62402.38
2022-10-15T00:33:37.409Z,62402.38
2022-10-15T00:36:07.053Z,62402.38
2022-10-15T00:38:34.305Z,62402.38
2022-10-15T00:41:01.952Z,62402.38
2022-10-15T00:43:42.583Z,62402.38
2022-10-15T00:46:17.274Z,62402.38
2022-10-15T00:48:46.149Z,62402.38
2022-10-15T00:51:13.046Z,62402.38
2022-10-15T00:53:40.371Z,62402.38
2022-10-15T00:56:07.564Z,62402.38
2022-10-15T00:58:35.270Z,62402.38
2022-10-15T01:01:03.539Z,62402.38
2022-10-15T01:03:30.720Z,62402.38
2022-10-15T01:05:57.492Z,62402.38
2022-10-15T01:08:24.137Z,62402.38
2022-10-15T01:11:00.696Z,62402.38
2022-10-15T01:13:35.843Z,62402.38
2022-10-15T01:16:09.394Z,62402.38
2022-10-15T01:18:40.625Z,62402.38
2022-10-15T01:21:13.794Z,62402.38
2022-10-15T01:24:11.439Z,62402.38
2022-10-15T01:27:11.754Z,62402.38
2022-10-15T01:30:01.563Z,62402.38
2022-10-15T01:32:33.186Z,62402.38
2022-10-15T01:35:06.905Z,62402.38
2022-10-15T01:37:39.194Z,62402.38
2022-10-15T01:40:12.998Z,62402.38
2022-10-15T01:42:43.013Z,62402.38
2022-10-15T01:45:16.262Z,62402.38
2022-10-15T01:47:49.444Z,62402.38
2022-10-15T01:50:19.376Z,62402.38
2022-10-15T01:52:48.079Z,62402.38
2022-10-15T01:55:16.962Z,62402.38
2022-10-15T01:57:44.659Z,62402.38
2022-10-15T02:00:11.597Z,62402.38
2022-10-15T02:02:38.248Z,62402.38
2022-10-15T02:05:07.878Z,62402.38
2022-10-15T02:07:44.053Z,62402.38
2022-10-15T02:10:14.061Z,62402.38
2022-10-15T02:12:48.697Z,62402.38
2022-10-15T02:15:18.739Z,62402.38
2022-10-15T02:17:49.503Z,62402.38
2022-10-15T02:20:19.775Z,62402.38
2022-10-15T02:22:48.596Z,62402.38
2022-10-15T02:25:16.704Z,62402.38
2022-10-15T02:27:43.702Z,62402.38
2022-10-15T02:30:10.855Z,62402.38
2022-10-15T02:32:38.797Z,62402.38
2022-10-15T02:35:06.210Z,62402.38
2022-10-15T02:37:35.178Z,62402.38
2022-10-15T02:40:01.732Z,62402.38
2022-10-15T02:42:28.469Z,62402.38
2022-10-15T02:44:54.964Z,62402.38
2022-10-15T02:47:21.534Z,62402.38
2022-10-15T02:49:48.114Z,62402.38
2022-10-15T02:52:14.538Z,62402.38
2022-10-15T02:54:42.373Z,62402.38
2022-10-15T02:57:08.869Z,62402.38
2022-10-15T02:59:35.335Z,62402.38
2022-10-15T03:02:01.864Z,62402.38
2022-10-15T03:04:28.503Z,62402.38
2022-10-15T03:06:54.993Z,62402.38
2022-10-15T03:09:21.451Z,62402.38
2022-10-15T03:11:49.239Z,62402.38
2022-10-15T03:14:15.682Z,62402.38
2022-10-15T03:16:42.128Z,62402.38
2022-10-15T03:19:08.601Z,62402.38
2022-10-15T03:21:35.027Z,62402.38
2022-10-15T03:24:02.195Z,62402.38
2022-10-15T03:26:28.684Z,62402.38
2022-10-15T03:28:56.584Z,62402.38
2022-10-15T03:31:23.102Z,62402.38
2022-10-15T03:33:49.645Z,62402.38
2022-10-15T03:36:17.329Z,62402.38
2022-10-15T03:38:43.786Z,62402.38
2022-10-15T03:41:10.273Z,62402.38
2022-10-15T03:43:38.922Z,62402.38
2022-10-15T03:46:09.799Z,62402.38
2022-10-15T03:48:36.269Z,62402.38
2022-10-15T03:51:02.780Z,62402.38
2022-10-15T03:53:29.256Z,62402.38
2022-10-15T03:55:55.798Z,62402.38
2022-10-15T03:58:22.258Z,62402.38
2022-10-15T04:00:48.757Z,62402.38
2022-10-15T04:03:16.677Z,62402.38
2022-10-15T04:05:53.737Z,62402.38
2022-10-15T04:08:21.237Z,62402.38
2022-10-15T04:10:48.117Z,62402.38
2022-10-15T04:13:14.629Z,62402.38
2022-10-15T04:15:41.040Z,62402.38
2022-10-15T04:18:07.714Z,62402.38
2022-10-15T04:20:35.590Z,62402.38
2022-10-15T04:23:02.075Z,62402.38
2022-10-15T04:25:28.583Z,62402.38
2022-10-15T04:27:55.030Z,62402.38
2022-10-15T04:30:21.615Z,62402.38
2022-10-15T04:32:51.061Z,62402.38
2022-10-15T04:35:17.962Z,62402.38
2022-10-15T04:37:46.173Z,62402.38
2022-10-15T04:40:13.434Z,62402.38
2022-10-15T04:42:40.219Z,62402.38
2022-10-15T04:45:08.256Z,62402.38
2022-10-15T04:47:34.944Z,62402.38
2022-10-15T04:50:01.595Z,62402.38
2022-10-15T04:52:28.308Z,62402.38
2022-10-15T04:54:57.934Z,62402.38
2022-10-15T04:57:24.830Z,62402.38
2022-10-15T04:59:55.385Z,62402.38
2022-10-15T05:02:24.470Z,62402.38
2022-10-15T05:04:51.443Z,62402.38
2022-10-15T05:07:18.106Z,62402.38
2022-10-15T05:09:46.524Z,62402.38
2022-10-15T05:12:14.925Z,62402.38
2022-10-15T05:14:41.942Z,62402.38
2022-10-15T05:17:08.627Z,62402.38
2022-10-15T05:19:35.266Z,62402.38
2022-10-15T05:22:02.011Z,62402.38
2022-10-15T05:24:28.649Z,62402.38
2022-10-15T05:26:55.305Z,62402.38
2022-10-15T05:29:23.636Z,62402.38
2022-10-15T05:31:50.711Z,62402.38
2022-10-15T05:34:17.403Z,62402.38
2022-10-15T05:36:44.084Z,62402.38
2022-10-15T05:39:12.153Z,62402.38
2022-10-15T05:41:38.899Z,62402.38
2022-10-15T05:44:05.633Z,62402.38
2022-10-15T05:46:33.673Z,62402.38
2022-10-15T05:49:00.389Z,62402.38
2022-10-15T05:51:28.573Z,62402.38
2022-10-15T05:53:56.606Z,62402.38
2022-10-15T05:56:24.211Z,62402.38
2022-10-15T05:58:51.415Z,62402.38
2022-10-15T06:01:18.892Z,62402.38
2022-10-15T06:03:47.474Z,62402.38
2022-10-15T06:06:15.961Z,62402.38
2022-10-15T06:08:43.299Z,62402.38
2022-10-15T06:11:10.269Z,62402.38
2022-10-15T06:13:39.230Z,62402.38
2022-10-15T06:16:06.342Z,62402.38
2022-10-15T06:18:33.059Z,62402.38
2022-10-15T06:21:01.804Z,62402.38
2022-10-15T06:23:28.871Z,62402.38
2022-10-15T06:25:55.589Z,62402.38
2022-10-15T06:28:22.342Z,62402.38
2022-10-15T06:30:49.021Z,62402.38
2022-10-15T06:33:17.202Z,62402.38
2022-10-15T06:35:44.276Z,62402.38
2022-10-15T06:38:12.295Z,62402.38
2022-10-15T06:40:39.781Z,62402.38
2022-10-15T06:43:08.148Z,62402.38
2022-10-15T06:45:36.569Z,62402.38
2022-10-15T06:48:04.669Z,62402.38
2022-10-15T06:50:31.432Z,62402.38
2022-10-15T06:55:28.902Z,62402.38
2022-10-15T06:57:56.231Z,62402.38
2022-10-15T07:00:23.606Z,62402.38
2022-10-15T07:02:50.538Z,62402.38
2022-10-15T07:05:17.357Z,62402.38
2022-10-15T07:07:51.550Z,62402.38
2022-10-15T07:10:18.440Z,62402.38
2022-10-15T07:12:46.647Z,62402.38
2022-10-15T07:15:13.419Z,62402.38
2022-10-15T07:17:40.416Z,62402.38
2022-10-15T07:20:08.100Z,62402.38
2022-10-15T07:22:34.749Z,62402.38
2022-10-15T07:25:01.654Z,62402.38
2022-10-15T07:27:28.750Z,62402.38
2022-10-15T07:29:56.820Z,62402.38
2022-10-15T07:32:23.685Z,62402.38
2022-10-15T07:34:50.599Z,62402.38
2022-10-15T07:37:17.240Z,62402.38
2022-10-15T07:39:43.936Z,62402.38
2022-10-15T07:42:10.664Z,62402.38
2022-10-15T07:44:37.341Z,62402.38
2022-10-15T07:47:06.453Z,62402.38
2022-10-15T07:49:33.319Z,62402.38
2022-10-15T07:52:00.317Z,62402.38
2022-10-15T07:54:27.016Z,62402.38
2022-10-15T07:56:53.729Z,62402.38
2022-10-15T07:59:20.920Z,97141.75
2022-10-15T08:01:49.897Z,97142.53
2022-10-15T08:04:20.455Z,97134.88
2022-10-15T08:09:31.561Z,97146.22
2022-10-15T08:11:58.288Z,97151.31
2022-10-15T08:14:25.565Z,97148.59
2022-10-15T08:16:52.440Z,97153.25
2022-10-15T08:19:21.405Z,97161.56
2022-10-15T08:21:48.262Z,97151.66
2022-10-15T08:24:15.102Z,97153.88
2022-10-15T08:26:41.936Z,97150.69
2022-10-15T08:29:10.308Z,97154.84
2022-10-15T08:31:37.471Z,97150.84
2022-10-15T08:34:04.150Z,97157.56
2022-10-15T08:36:32.449Z,97160.91
2022-10-15T08:38:59.238Z,97154.22
2022-10-15T08:41:32.587Z,97156.94
2022-10-15T08:44:00.065Z,97157.88
2022-10-15T08:46:32.938Z,97149.84
2022-10-15T08:49:01.717Z,97154.63
2022-10-15T08:51:37.907Z,97164.69
2022-10-15T08:54:06.736Z,97160.34
2022-10-15T08:56:37.415Z,97167.38
2022-10-15T08:59:14.768Z,97169.13
2022-10-15T09:01:48.774Z,97162.56
2022-10-15T09:07:07.791Z,97167.69
2022-10-15T09:09:43.261Z,97172.00
2022-10-15T09:12:36.784Z,97171.03
2022-10-15T09:15:10.269Z,97174.38
2022-10-15T09:17:37.531Z,97172.00
2022-10-15T09:20:07.977Z,97177.25
2022-10-15T09:22:36.289Z,97172.06
2022-10-15T09:25:14.919Z,97167.72
2022-10-15T09:27:42.665Z,97168.50
2022-10-15T09:30:26.156Z,97166.47
2022-10-15T09:32:59.444Z,97163.69
2022-10-15T09:35:31.353Z,97167.63
2022-10-15T09:38:13.255Z,97173.38
2022-10-15T09:40:54.180Z,97167.09
2022-10-15T09:43:28.275Z,97168.47
2022-10-15T09:45:55.119Z,97166.03
2022-10-15T09:48:22.348Z,97155.63
2022-10-15T09:50:56.960Z,97158.63
2022-10-15T09:53:36.393Z,97154.78
2022-10-15T09:56:11.490Z,97163.22
2022-10-15T09:58:44.051Z,97160.03
2022-10-15T10:01:19.776Z,97165.31
2022-10-15T10:03:52.988Z,97164.09
2022-10-15T10:06:21.180Z,97156.59
2022-10-15T10:08:53.525Z,97157.59
2022-10-15T10:11:21.114Z,97156.59
2022-10-15T10:13:52.205Z,97157.06
2022-10-15T10:16:21.619Z,97158.66
2022-10-15T10:19:05.929Z,97164.94
2022-10-15T10:21:34.868Z,97162.66
2022-10-15T10:24:25.243Z,97157.19
2022-10-15T10:26:52.186Z,97159.06
2022-10-15T10:29:33.491Z,97161.47
2022-10-15T10:32:10.450Z,97158.78
2022-10-15T10:34:37.360Z,97151.84
2022-10-15T10:37:06.667Z,97151.69
2022-10-15T10:39:36.538Z,97153.31
2022-10-15T10:42:05.715Z,97169.63
2022-10-15T10:44:34.245Z,97164.13
2022-10-15T10:47:13.924Z,97161.94
2022-10-15T10:49:42.911Z,97158.22
2022-10-15T10:52:20.912Z,97159.81
2022-10-15T10:54:58.217Z,97159.91
2022-10-15T10:57:32.772Z,97169.81
2022-10-15T11:00:00.988Z,97174.69
2022-10-15T11:02:27.895Z,97160.25
2022-10-15T11:04:54.652Z,97165.69
2022-10-15T11:07:25.958Z,97159.69
2022-10-15T11:09:59.641Z,97153.78
2022-10-15T11:12:53.367Z,97156.53
2022-10-15T11:15:33.560Z,97163.78
2022-10-15T11:18:17.742Z,97146.75
2022-10-15T11:20:59.476Z,97150.34
2022-10-15T11:23:34.982Z,97136.84
2022-10-15T11:26:13.495Z,97133.94
2022-10-15T11:28:50.953Z,97143.59
2022-10-15T11:31:28.983Z,97135.97
2022-10-15T11:34:17.710Z,97134.19
2022-10-15T11:37:00.498Z,97141.41
2022-10-15T11:39:40.428Z,97127.38
2022-10-15T11:42:16.929Z,97132.22
2022-10-15T11:45:04.015Z,97130.25
2022-10-15T11:47:44.582Z,97138.50
2022-10-15T11:50:26.844Z,97139.75
2022-10-15T11:53:26.963Z,97126.34
2022-10-15T11:56:01.928Z,97127.25
2022-10-15T11:58:34.906Z,97127.75
2022-10-15T12:01:07.006Z,97132.06
2022-10-15T12:03:40.575Z,97131.94
2022-10-15T12:06:10.978Z,97126.84
2022-10-15T12:08:40.105Z,97125.38
2022-10-15T12:11:16.806Z,97113.41
2022-10-15T12:13:51.524Z,97127.31
2022-10-15T12:16:27.028Z,97123.97
2022-10-15T12:19:03.618Z,97123.97
2022-10-15T12:21:36.436Z,97117.28
2022-10-15T12:24:07.266Z,97115.00
2022-10-15T12:26:35.141Z,97110.78
2022-10-15T12:29:06.010Z,97112.38
2022-10-15T12:31:48.279Z,97120.75
2022-10-15T12:34:31.073Z,97116.41
2022-10-15T12:37:04.119Z,97114.31
2022-10-15T12:42:23.989Z,97106.81
2022-10-15T12:44:52.513Z,97101.34
2022-10-15T12:47:48.044Z,97102.50
2022-10-15T12:50:19.475Z,97103.16
2022-10-15T12:52:56.292Z,97093.06
2022-10-15T12:55:31.712Z,97090.91
2022-10-15T12:58:01.786Z,97093.97
2022-10-15T13:00:38.821Z,97091.59
2022-10-15T13:03:28.179Z,97085.44
2022-10-15T13:05:55.460Z,97092.03
2022-10-15T13:08:25.100Z,97087.50
2022-10-15T13:10:55.185Z,97088.63
2022-10-15T13:13:26.339Z,97090.44
2022-10-15T13:15:58.517Z,97086.69
2022-10-15T13:18:26.778Z,97087.97
2022-10-15T13:20:56.324Z,97073.78
2022-10-15T13:23:31.630Z,97091.66
2022-10-15T13:26:13.319Z,97091.00
2022-10-15T13:28:42.394Z,97095.78
2022-10-15T13:31:16.217Z,97088.75
2022-10-15T13:33:47.994Z,97083.97
2022-10-15T13:36:20.710Z,97092.94
2022-10-15T13:38:54.376Z,97097.69
2022-10-15T13:41:25.506Z,97098.72
2022-10-15T13:43:58.580Z,97089.50
2022-10-15T13:46:28.519Z,97089.50
2022-10-15T13:49:00.795Z,97088.72
2022-10-15T13:51:40.044Z,97086.22
2022-10-15T13:54:09.653Z,97078.56
2022-10-15T13:56:36.843Z,97081.25
2022-10-15T13:59:04.592Z,97082.03
2022-10-15T14:01:34.875Z,97082.03
2022-10-15T14:04:03.236Z,97087.78
2022-10-15T14:06:31.602Z,97087.66
2022-10-15T14:09:01.656Z,97095.09
2022-10-15T14:11:29.938Z,97084.28
2022-10-15T14:13:58.807Z,97080.22
2022-10-15T14:19:19.568Z,97096.41
2022-10-15T14:21:48.709Z,97098.66
2022-10-15T14:24:19.438Z,97089.00
2022-10-15T14:26:47.361Z,97096.94
2022-10-15T14:29:19.157Z,97091.28
2022-10-15T14:31:48.921Z,97088.94
2022-10-15T14:34:30.766Z,97090.63
2022-10-15T14:36:57.880Z,97095.09
2022-10-15T14:39:30.976Z,97093.69
2022-10-15T14:41:59.826Z,97099.47
2022-10-15T14:44:39.622Z,97086.53
2022-10-15T14:47:06.503Z,97090.69
2022-10-15T14:49:36.191Z,97099.38
2022-10-15T14:52:06.111Z,97094.47
2022-10-15T14:54:36.872Z,97109.84
2022-10-15T14:57:04.373Z,97116.59
2022-10-15T14:59:36.372Z,97118.47
2022-10-15T15:02:05.314Z,97116.66
2022-10-15T15:04:35.956Z,97112.28
2022-10-15T15:07:02.704Z,97117.88
2022-10-15T15:09:29.420Z,97112.00
2022-10-15T15:11:56.302Z,97118.81
2022-10-15T15:14:25.589Z,97118.72
2022-10-15T15:16:52.427Z,97120.00
2022-10-15T15:19:19.295Z,97114.31
2022-10-15T15:21:47.459Z,97117.03
2022-10-15T15:24:14.155Z,97111.25
2022-10-15T15:26:40.827Z,97108.06
2022-10-15T15:29:13.588Z,97113.53
2022-10-15T15:31:40.702Z,97117.97
2022-10-15T15:34:07.420Z,97113.19
2022-10-15T15:36:34.170Z,97116.38
2022-10-15T15:39:02.309Z,97126.94
2022-10-15T15:41:29.090Z,97136.94
2022-10-15T15:43:55.818Z,97137.97
2022-10-15T15:46:22.561Z,97132.50
2022-10-15T15:48:49.318Z,97121.00
2022-10-15T15:51:21.131Z,97141.47
2022-10-15T15:53:47.995Z,97135.78
2022-10-15T15:56:16.267Z,97133.28
2022-10-15T15:58:43.602Z,97122.25
2022-10-15T16:01:10.379Z,97126.63
2022-10-15T16:03:39.277Z,97126.84
2022-10-15T16:06:07.697Z,97127.19
2022-10-15T16:08:35.742Z,97125.59
2022-10-15T16:11:03.893Z,97124.88
2022-10-15T16:13:32.741Z,97124.31
2022-10-15T16:15:59.479Z,97126.56
2022-10-15T16:18:26.176Z,97135.75
2022-10-15T16:20:53.236Z,97130.16
2022-10-15T16:23:20.000Z,97145.13
2022-10-15T16:25:46.679Z,97145.78
2022-10-15T16:28:13.685Z,97160.88
2022-10-15T16:30:41.866Z,97159.75
2022-10-15T16:35:40.411Z,97163.94
2022-10-15T16:38:07.985Z,97168.53
2022-10-15T16:40:35.388Z,97175.75
2022-10-15T16:43:02.291Z,97172.25
2022-10-15T16:45:28.981Z,97175.75
2022-10-15T16:47:57.962Z,97166.34
2022-10-15T16:50:24.736Z,97166.06
2022-10-15T16:52:51.518Z,97165.16
2022-10-15T16:55:18.369Z,97175.91
2022-10-15T16:57:45.182Z,97180.41
2022-10-15T17:00:12.294Z,97172.06
2022-10-15T17:02:38.902Z,97178.16
2022-10-15T17:05:07.526Z,97190.19
2022-10-15T17:07:34.078Z,97180.41
2022-10-15T17:10:00.847Z,97184.94
2022-10-15T17:12:27.913Z,97186.56
2022-10-15T17:14:54.736Z,97183.34
2022-10-15T17:17:21.330Z,97180.63
2022-10-15T17:19:47.792Z,97199.34
2022-10-15T17:22:15.843Z,97203.69
2022-10-15T17:24:42.337Z,97207.66
2022-10-15T17:27:09.166Z,97204.78
2022-10-15T17:29:35.943Z,97198.00
2022-10-15T17:32:03.003Z,97205.81
2022-10-15T17:34:29.967Z,97210.47
2022-10-15T17:36:56.917Z,97222.50
2022-10-15T17:39:25.165Z,97214.34
2022-10-15T17:41:52.290Z,97216.13
2022-10-15T17:44:19.137Z,97222.25
2022-10-15T17:46:46.076Z,97224.34
2022-10-15T17:49:18.252Z,97240.38
2022-10-15T17:51:46.488Z,97234.91
2022-10-15T17:54:13.310Z,97236.66
2022-10-15T17:56:41.572Z,97244.38
2022-10-15T17:59:11.477Z,97251.25
2022-10-15T18:04:28.144Z,97252.44
2022-10-15T18:06:55.059Z,97246.34
2022-10-15T18:09:22.122Z,97244.09
2022-10-15T18:11:50.709Z,97247.81
2022-10-15T18:14:18.601Z,97250.84
2022-10-15T18:16:45.865Z,97250.97
2022-10-15T18:19:13.056Z,97255.66
2022-10-15T18:21:40.287Z,97267.16
2022-10-15T18:24:07.093Z,97275.00
2022-10-15T18:26:34.024Z,97273.06
2022-10-15T18:29:02.568Z,97271.00
2022-10-15T18:31:32.103Z,97267.81
2022-10-15T18:33:59.152Z,97269.25
2022-10-15T18:36:28.034Z,97264.66
2022-10-15T18:38:55.135Z,97283.09
2022-10-15T18:41:24.274Z,97281.00
2022-10-15T18:43:52.383Z,97284.53
2022-10-15T18:46:21.375Z,97285.81
2022-10-15T18:48:48.906Z,97276.50
2022-10-15T18:51:16.301Z,97282.59
2022-10-15T18:53:43.849Z,97287.44
2022-10-15T18:56:14.489Z,97283.00
2022-10-15T18:58:45.532Z,97282.66
2022-10-15T19:01:24.718Z,97286.78
2022-10-15T19:03:53.349Z,97288.84
2022-10-15T19:06:20.811Z,97291.75
2022-10-15T19:08:48.586Z,97287.16
2022-10-15T19:11:16.135Z,97286.34
2022-10-15T19:13:42.941Z,97284.13
2022-10-15T19:16:10.111Z,97284.13
2022-10-15T19:18:37.401Z,97281.44
2022-10-15T19:21:06.691Z,97287.88
2022-10-15T19:23:34.570Z,97284.50
2022-10-15T19:26:01.893Z,97286.59
2022-10-15T19:28:29.264Z,97282.75
2022-10-15T19:30:57.778Z,97288.22
2022-10-15T19:33:25.047Z,97279.38
2022-10-15T19:35:52.404Z,97280.66
2022-10-15T19:38:20.655Z,97277.78
2022-10-15T19:40:49.536Z,97281.66
2022-10-15T19:43:18.063Z,97292.06
2022-10-15T19:45:46.438Z,97295.56
2022-10-15T19:48:15.311Z,97302.47
2022-10-15T19:50:44.753Z,97305.38
2022-10-15T19:53:16.184Z,97296.69
2022-10-15T19:55:54.598Z,97305.38
2022-10-15T19:58:21.558Z,97301.53
2022-10-15T20:00:48.790Z,97312.56
2022-10-15T20:03:15.497Z,97309.53
2022-10-15T20:05:42.953Z,97310.03
2022-10-15T20:08:09.937Z,97320.75
2022-10-15T20:10:39.907Z,97325.09
2022-10-15T20:13:08.093Z,97328.63
2022-10-15T20:15:35.051Z,97329.09
2022-10-15T20:18:01.766Z,97336.47
2022-10-15T20:20:28.801Z,97344.00
2022-10-15T20:22:55.472Z,97360.66
2022-10-15T20:25:22.256Z,97353.09
2022-10-15T20:27:48.967Z,97354.41
2022-10-15T20:30:17.340Z,97352.47
2022-10-15T20:32:44.050Z,97356.47
2022-10-15T20:35:10.823Z,97359.53
2022-10-15T20:37:37.569Z,97356.81
2022-10-15T20:40:05.527Z,97356.31
2022-10-15T20:42:34.125Z,97350.06
2022-10-15T20:45:00.814Z,97356.94
2022-10-15T20:47:29.235Z,97374.88
2022-10-15T20:49:56.297Z,97381.59
2022-10-15T20:52:23.924Z,97383.69
2022-10-15T20:54:52.306Z,97390.84
2022-10-15T20:57:19.340Z,97396.63
2022-10-15T20:59:46.164Z,97390.06
2022-10-15T21:02:12.997Z,97395.19
2022-10-15T21:04:41.286Z,97390.06
2022-10-15T21:07:08.074Z,97372.00
2022-10-15T21:09:34.911Z,97383.53
2022-10-15T21:12:02.160Z,97395.19
2022-10-15T21:14:28.901Z,97388.47
2022-10-15T21:16:55.593Z,97382.06
2022-10-15T21:19:22.612Z,97391.06
2022-10-15T21:21:50.739Z,97396.63
2022-10-15T21:24:18.353Z,97405.44
2022-10-15T21:26:45.076Z,97405.44
2022-10-15T21:29:16.333Z,97404.66
2022-10-15T21:31:43.285Z,97414.38
2022-10-15T21:34:10.026Z,97419.19
2022-10-15T21:36:36.744Z,97416.16
2022-10-15T21:39:07.271Z,97403.84
2022-10-15T21:41:35.882Z,97411.38
2022-10-15T21:44:04.157Z,97406.72
2022-10-15T21:46:31.559Z,97401.56
2022-10-15T21:48:59.150Z,97413.56
2022-10-15T21:51:28.540Z,97412.59
2022-10-15T21:53:56.201Z,97421.72
2022-10-15T21:56:24.583Z,97425.03
2022-10-15T21:58:52.169Z,97425.53
2022-10-15T22:01:23.594Z,97431.31
2022-10-15T22:03:52.183Z,97436.06
2022-10-15T22:06:20.492Z,97452.38
2022-10-15T22:08:48.049Z,97455.13
2022-10-15T22:11:17.631Z,97447.78
2022-10-15T22:13:47.718Z,97442.84
2022-10-15T22:16:15.335Z,97448.28
2022-10-15T22:18:42.644Z,97445.59
2022-10-15T22:21:12.976Z,97447.50
2022-10-15T22:23:39.854Z,97443.06
2022-10-15T22:26:06.586Z,97451.22
2022-10-15T22:28:33.395Z,97443.03
2022-10-15T22:31:04.378Z,97446.22
2022-10-15T22:33:31.245Z,97455.97
2022-10-15T22:36:00.615Z,97447.97
2022-10-15T22:38:27.360Z,97460.78
2022-10-15T22:40:54.778Z,97452.44
2022-10-15T22:43:21.810Z,97450.66
2022-10-15T22:45:48.501Z,97464.53
2022-10-15T22:48:16.568Z,97464.53
2022-10-15T22:50:43.657Z,97467.38
2022-10-15T22:53:10.646Z,97468.31
2022-10-15T22:55:37.333Z,97468.31
2022-10-15T22:58:04.178Z,97472.13
2022-10-15T23:00:31.364Z,97475.75
2022-10-15T23:02:58.082Z,97469.50
2022-10-15T23:05:26.163Z,97459.09
2022-10-15T23:07:52.877Z,97462.59
2022-10-15T23:10:19.539Z,97467.91
2022-10-15T23:12:46.187Z,97467.25
2022-10-15T23:15:12.941Z,97473.94
2022-10-15T23:17:39.728Z,97469.25
2022-10-15T23:20:07.138Z,97467.47
2022-10-15T23:22:35.246Z,97472.84
2022-10-15T23:25:05.090Z,97478.41
2022-10-15T23:27:32.036Z,97487.03
2022-10-15T23:30:14.068Z,97492.59
2022-10-15T23:32:45.524Z,97493.75
2022-10-15T23:35:12.223Z,97490.44
2022-10-15T23:37:41.353Z,97490.25
2022-10-15T23:40:09.631Z,97499.88
2022-10-15T23:42:36.307Z,97494.94
2022-10-15T23:45:03.220Z,97496.78
2022-10-15T23:47:29.906Z,97499.25
2022-10-15T23:49:56.609Z,97498.09
2022-10-15T23:52:23.308Z,97484.78
2022-10-15T23:54:51.355Z,97487.63
2022-10-15T23:57:18.043Z,97485.31
2022-10-15T23:59:44.759Z,97487.66
